Pernille — 5BNZ2 — position and weather

sailwx.info

Track history (hours):
 
Tides and Currents Weather Stations Pressure Air Temp Water Temp Dewpoint Dewpoint Depression Visibility Wind Speed Wind Dir Waves Ship Positions

Pernille

Last reported at 2017-Jun-27 22:29 UTC. Time now 2017-Jun-27 22:31 UTC.
Position N 51°54' E 004°20'.

Length 83 m; draft 5.6 m.

Type: Cargo ship. MMSI: 212662000.

Date/timePositionNaut miles runAvg speedWind from/ knotsBaromVisibWave heightAir tempDewpointWater temp
2017-Jun-27 22:29N 51°54' E 004°20'0 0.0
2017-Jun-27 22:00N 51°54' E 004°20'0 0.0
2017-Jun-27 21:30N 51°54' E 004°20'0 0.0
2017-Jun-27 21:00N 51°54' E 004°20'0 0.0
2017-Jun-27 20:30N 51°54' E 004°20'0 0.0
2017-Jun-27 20:00N 51°54' E 004°20'0 0.0
2017-Jun-27 19:30N 51°54' E 004°20'0 0.0
2017-Jun-27 19:00N 51°54' E 004°20'0 0.0
2017-Jun-27 18:30N 51°54' E 004°20'0 0.0
2017-Jun-27 18:00N 51°54' E 004°20'0 0.0
2017-Jun-27 17:30N 51°54' E 004°20'0 0.0
2017-Jun-27 17:00N 51°54' E 004°20'0 0.0
2017-Jun-27 16:30N 51°54' E 004°20'0 0.0
2017-Jun-27 16:00N 51°54' E 004°20'0 0.0
2017-Jun-27 15:30N 51°54' E 004°20'0 0.0
2017-Jun-27 15:00N 51°54' E 004°20'0 0.0
2017-Jun-27 14:30N 51°54' E 004°20'0 0.0
2017-Jun-27 13:30N 51°54' E 004°20'0 0.0
2017-Jun-27 13:00N 51°54' E 004°20'0 0.0
2017-Jun-27 12:30N 51°54' E 004°20'0 0.0
2017-Jun-27 12:00N 51°54' E 004°20'0 0.0
2017-Jun-27 11:30N 51°54' E 004°20'0 0.0
2017-Jun-27 10:59N 51°54' E 004°20'0 0.0
2017-Jun-27 10:30N 51°54' E 004°20'0 0.0
2017-Jun-27 10:00N 51°54' E 004°20'0 0.0
2017-Jun-27 09:30N 51°54' E 004°20'0 0.0
2017-Jun-27 09:00N 51°54' E 004°20'0 0.0
2017-Jun-27 08:30N 51°54' E 004°20'0 0.0
2017-Jun-27 08:00N 51°54' E 004°20'0 0.0
2017-Jun-27 07:30N 51°54' E 004°20'0 0.0
2017-Jun-27 07:00N 51°54' E 004°20'0 0.0
2017-Jun-27 06:30N 51°54' E 004°20'0 0.1
2017-Jun-27 06:00N 51°54' E 004°20'3 5.1
2017-Jun-27 05:31N 51°54' E 004°16'611.2
2017-Jun-27 05:01N 51°58' E 004°09'510.2
2017-Jun-27 04:30N 51°60' E 004°01'510.9
2017-Jun-27 04:01N 52°01' E 003°52'1323.1
2017-Jun-27 03:27N 51°57' E 003°32'0 0.0
2017-Jun-27 03:00N 51°57' E 003°32'4 8.1
2017-Jun-27 02:30N 51°56' E 003°26'3 6.0
2017-Jun-27 02:00N 51°55' E 003°21'27 9.1
2017-Jun-26 23:00N 51°46' E 002°40'4 8.5
2017-Jun-26 22:31N 51°43' E 002°35'4 8.4
2017-Jun-26 22:00N 51°40' E 002°30'4 8.4
2017-Jun-26 21:30N 51°37' E 002°25'4 8.5
2017-Jun-26 21:01N 51°34' E 002°20'4 8.8
2017-Jun-26 20:30N 51°31' E 002°15'5 9.2
2017-Jun-26 20:00N 51°28' E 002°10'4 8.9
2017-Jun-26 19:31N 51°23' E 002°08'5 9.6
2017-Jun-26 19:00N 51°18' E 002°08'4 8.5
2017-Jun-26 18:30N 51°15' E 002°05'5 9.7
2017-Jun-26 18:01N 51°12' E 001°59'510.0
2017-Jun-26 17:30N 51°09' E 001°52'5 9.8
2017-Jun-26 17:01N 51°06' E 001°46'510.8
2017-Jun-26 16:30N 51°02' E 001°40'611.4
2017-Jun-26 16:00N 50°57' E 001°34'611.8
2017-Jun-26 15:31N 50°53' E 001°29'1811.4
2017-Jun-26 13:57N 50°37' E 001°16'5911.5
2017-Jun-26 08:49N 50°16' W 000°11'411.6
2017-Jun-26 08:30N 50°15' W 000°16'1611.3
2017-Jun-26 07:07N 50°11' W 000°40'110.5
2017-Jun-26 07:01N 50°10' W 000°42'9 9.8
2017-Jun-26 06:02N 50°08' W 000°56'1 9.0
2017-Jun-26 05:59N 50°08' W 000°57'4 8.5
2017-Jun-26 05:30N 50°07' W 001°03'4 7.8
2017-Jun-26 05:00N 50°06' W 001°09'4 7.2
2017-Jun-26 04:30N 50°05' W 001°14'3 6.9
2017-Jun-26 04:00N 50°04' W 001°19'3 6.2
2017-Jun-26 03:30N 50°03' W 001°24'3 6.1
2017-Jun-26 03:00N 50°03' W 001°29'3 6.1
2017-Jun-26 02:31N 50°02' W 001°33'3 6.4
2017-Jun-26 02:00N 50°01' W 001°38'3 7.0
2017-Jun-26 01:30N 50°00' W 001°43'4 7.8
2017-Jun-26 01:00N 49°59' W 001°49'4 8.6
2017-Jun-26 00:30N 49°58' W 001°55'2911.1
2017-Jun-25 21:54N 49°51' W 002°39'1212.0
2017-Jun-25 20:56N 49°48' W 002°56'612.1
2017-Jun-25 20:28N 49°45' W 003°04'512.0
2017-Jun-25 20:00N 49°43' W 003°12'1412.0
2017-Jun-25 18:49N 49°35' W 003°31'2312.3
2017-Jun-25 16:58N 49°23' W 004°01'612.0
2017-Jun-25 16:27N 49°20' W 004°09'611.5
2017-Jun-25 15:58N 49°17' W 004°16'3310.4
2017-Jun-25 12:48N 49°01' W 004°59'16 8.4
2017-Jun-25 10:53N 48°52' W 005°20'6 8.1
2017-Jun-25 10:10N 48°49' W 005°27'21 8.4
2017-Jun-25 07:43N 48°32' W 005°46'7 9.6
2017-Jun-25 06:58N 48°26' W 005°51'510.0
2017-Jun-25 06:30N 48°22' W 005°54'510.4
2017-Jun-25 06:00N 48°17' W 005°58'510.8
2017-Jun-25 05:30N 48°12' W 006°01'510.8
2017-Jun-25 05:00N 48°08' W 006°05'1111.3
2017-Jun-25 04:02N 47°58' W 006°13'011.7
2017-Jun-25 04:00N 47°58' W 006°13'611.6
2017-Jun-25 03:30N 47°53' W 006°17'611.5
2017-Jun-25 02:59N 47°47' W 006°21'1312.0
2017-Jun-25 01:53N 47°36' W 006°30'52110.2
2017-Jun-22 22:55N 39°15' W 009°51'410.6
2017-Jun-22 22:30N 39°11' W 009°51'510.3
2017-Jun-22 22:00N 39°06' W 009°52'510.0
2017-Jun-22 21:30N 39°01' W 009°52'510.0
2017-Jun-22 21:00N 38°56' W 009°52'510.2
2017-Jun-22 20:31N 38°51' W 009°52'510.1
2017-Jun-22 20:00N 38°45' W 009°52'510.0
2017-Jun-22 19:30N 38°41' W 009°51'5 9.4
2017-Jun-22 19:00N 38°36' W 009°49'5 9.4
2017-Jun-22 18:30N 38°31' W 009°48'5 9.5
2017-Jun-22 18:00N 38°27' W 009°47'5 9.7
2017-Jun-22 17:31N 38°22' W 009°46'5 9.7
2017-Jun-22 17:01N 38°17' W 009°44'5 9.1
2017-Jun-22 16:30N 38°13' W 009°43'5 8.9
2017-Jun-22 15:54N 38°08' W 009°41'5 9.0
2017-Jun-22 15:22N 38°03' W 009°40'13 9.3
2017-Jun-22 13:57N 37°50' W 009°36'4 9.3
2017-Jun-22 13:30N 37°46' W 009°35'5 9.5
2017-Jun-22 13:00N 37°41' W 009°34'5 9.9
2017-Jun-22 12:27N 37°36' W 009°32'5 9.9
2017-Jun-22 11:57N 37°31' W 009°31'5 9.7
2017-Jun-22 11:27N 37°27' W 009°29'39 9.7
2017-Jun-22 07:23N 36°49' W 009°14'13 9.8
2017-Jun-22 06:04N 36°42' W 009°00'110.0
2017-Jun-22 05:57N 36°42' W 008°59'2210.0
2017-Jun-22 03:46N 36°36' W 008°33'32 9.9
2017-Jun-22 00:33N 36°27' W 007°55'4 9.9
2017-Jun-22 00:11N 36°26' W 007°51'119 9.5
2017-Jun-21 11:38N 35°60' W 005°27'1 8.7
2017-Jun-21 11:30N 35°60' W 005°26'4 8.6
2017-Jun-21 11:00N 36°00' W 005°20'5 8.8
2017-Jun-21 10:26N 36°01' W 005°14'  
2017-Jun-18 08:24N 35°58' W 005°14'512.7
2017-Jun-18 08:00N 35°58' W 005°21'612.1
2017-Jun-18 07:30N 35°57' W 005°28'810.8
2017-Jun-18 06:45N 35°55' W 005°38'3 9.7
2017-Jun-18 06:28N 35°55' W 005°41'5 9.1
2017-Jun-18 05:54N 35°54' W 005°48'5 9.3
2017-Jun-18 05:23N 35°53' W 005°53'  
Track history (hours):
 
Tides and Currents Weather Stations Pressure Air Temp Water Temp Dewpoint Dewpoint Depression Visibility Wind Speed Wind Dir Waves Ship Positions

Pernille

Last reported at 2017-Jun-27 22:29 UTC. Time now 2017-Jun-27 22:31 UTC.
Position N 51°54' E 004°20'.

Length 83 m; draft 5.6 m.

Type: Cargo ship. MMSI: 212662000.

Date/timePositionNaut miles runAvg speedWind from/ knotsBaromVisibWave heightAir tempDewpointWater temp
2017-Jun-27 22:29N 51°54' E 004°20'0 0.0
2017-Jun-27 22:00N 51°54' E 004°20'0 0.0
2017-Jun-27 21:30N 51°54' E 004°20'0 0.0
2017-Jun-27 21:00N 51°54' E 004°20'0 0.0
2017-Jun-27 20:30N 51°54' E 004°20'0 0.0
2017-Jun-27 20:00N 51°54' E 004°20'0 0.0
2017-Jun-27 19:30N 51°54' E 004°20'0 0.0
2017-Jun-27 19:00N 51°54' E 004°20'0 0.0
2017-Jun-27 18:30N 51°54' E 004°20'0 0.0
2017-Jun-27 18:00N 51°54' E 004°20'0 0.0
2017-Jun-27 17:30N 51°54' E 004°20'0 0.0
2017-Jun-27 17:00N 51°54' E 004°20'0 0.0
2017-Jun-27 16:30N 51°54' E 004°20'0 0.0
2017-Jun-27 16:00N 51°54' E 004°20'0 0.0
2017-Jun-27 15:30N 51°54' E 004°20'0 0.0
2017-Jun-27 15:00N 51°54' E 004°20'0 0.0
2017-Jun-27 14:30N 51°54' E 004°20'0 0.0
2017-Jun-27 13:30N 51°54' E 004°20'0 0.0
2017-Jun-27 13:00N 51°54' E 004°20'0 0.0
2017-Jun-27 12:30N 51°54' E 004°20'0 0.0
2017-Jun-27 12:00N 51°54' E 004°20'0 0.0
2017-Jun-27 11:30N 51°54' E 004°20'0 0.0
2017-Jun-27 10:59N 51°54' E 004°20'0 0.0
2017-Jun-27 10:30N 51°54' E 004°20'0 0.0
2017-Jun-27 10:00N 51°54' E 004°20'0 0.0
2017-Jun-27 09:30N 51°54' E 004°20'0 0.0
2017-Jun-27 09:00N 51°54' E 004°20'0 0.0
2017-Jun-27 08:30N 51°54' E 004°20'0 0.0
2017-Jun-27 08:00N 51°54' E 004°20'0 0.0
2017-Jun-27 07:30N 51°54' E 004°20'0 0.0
2017-Jun-27 07:00N 51°54' E 004°20'0 0.0
2017-Jun-27 06:30N 51°54' E 004°20'0 0.1
2017-Jun-27 06:00N 51°54' E 004°20'3 5.1
2017-Jun-27 05:31N 51°54' E 004°16'611.2
2017-Jun-27 05:01N 51°58' E 004°09'510.2
2017-Jun-27 04:30N 51°60' E 004°01'510.9
2017-Jun-27 04:01N 52°01' E 003°52'1323.1
2017-Jun-27 03:27N 51°57' E 003°32'0 0.0
2017-Jun-27 03:00N 51°57' E 003°32'4 8.1
2017-Jun-27 02:30N 51°56' E 003°26'3 6.0
2017-Jun-27 02:00N 51°55' E 003°21'27 9.1
2017-Jun-26 23:00N 51°46' E 002°40'4 8.5
2017-Jun-26 22:31N 51°43' E 002°35'4 8.4
2017-Jun-26 22:00N 51°40' E 002°30'4 8.4
2017-Jun-26 21:30N 51°37' E 002°25'4 8.5
2017-Jun-26 21:01N 51°34' E 002°20'4 8.8
2017-Jun-26 20:30N 51°31' E 002°15'5 9.2
2017-Jun-26 20:00N 51°28' E 002°10'4 8.9
2017-Jun-26 19:31N 51°23' E 002°08'5 9.6
2017-Jun-26 19:00N 51°18' E 002°08'4 8.5
2017-Jun-26 18:30N 51°15' E 002°05'5 9.7
2017-Jun-26 18:01N 51°12' E 001°59'510.0
2017-Jun-26 17:30N 51°09' E 001°52'5 9.8
2017-Jun-26 17:01N 51°06' E 001°46'510.8
2017-Jun-26 16:30N 51°02' E 001°40'611.4
2017-Jun-26 16:00N 50°57' E 001°34'611.8
2017-Jun-26 15:31N 50°53' E 001°29'1811.4
2017-Jun-26 13:57N 50°37' E 001°16'5911.5
2017-Jun-26 08:49N 50°16' W 000°11'411.6
2017-Jun-26 08:30N 50°15' W 000°16'1611.3
2017-Jun-26 07:07N 50°11' W 000°40'110.5
2017-Jun-26 07:01N 50°10' W 000°42'9 9.8
2017-Jun-26 06:02N 50°08' W 000°56'1 9.0
2017-Jun-26 05:59N 50°08' W 000°57'4 8.5
2017-Jun-26 05:30N 50°07' W 001°03'4 7.8
2017-Jun-26 05:00N 50°06' W 001°09'4 7.2
2017-Jun-26 04:30N 50°05' W 001°14'3 6.9
2017-Jun-26 04:00N 50°04' W 001°19'3 6.2
2017-Jun-26 03:30N 50°03' W 001°24'3 6.1
2017-Jun-26 03:00N 50°03' W 001°29'3 6.1
2017-Jun-26 02:31N 50°02' W 001°33'3 6.4
2017-Jun-26 02:00N 50°01' W 001°38'3 7.0
2017-Jun-26 01:30N 50°00' W 001°43'4 7.8
2017-Jun-26 01:00N 49°59' W 001°49'4 8.6
2017-Jun-26 00:30N 49°58' W 001°55'2911.1
2017-Jun-25 21:54N 49°51' W 002°39'1212.0
2017-Jun-25 20:56N 49°48' W 002°56'612.1
2017-Jun-25 20:28N 49°45' W 003°04'512.0
2017-Jun-25 20:00N 49°43' W 003°12'1412.0
2017-Jun-25 18:49N 49°35' W 003°31'2312.3
2017-Jun-25 16:58N 49°23' W 004°01'612.0
2017-Jun-25 16:27N 49°20' W 004°09'611.5
2017-Jun-25 15:58N 49°17' W 004°16'3310.4
2017-Jun-25 12:48N 49°01' W 004°59'16 8.4
2017-Jun-25 10:53N 48°52' W 005°20'6 8.1
2017-Jun-25 10:10N 48°49' W 005°27'21 8.4
2017-Jun-25 07:43N 48°32' W 005°46'7 9.6
2017-Jun-25 06:58N 48°26' W 005°51'510.0
2017-Jun-25 06:30N 48°22' W 005°54'510.4
2017-Jun-25 06:00N 48°17' W 005°58'510.8
2017-Jun-25 05:30N 48°12' W 006°01'510.8
2017-Jun-25 05:00N 48°08' W 006°05'1111.3
2017-Jun-25 04:02N 47°58' W 006°13'011.7
2017-Jun-25 04:00N 47°58' W 006°13'611.6
2017-Jun-25 03:30N 47°53' W 006°17'611.5
2017-Jun-25 02:59N 47°47' W 006°21'1312.0
2017-Jun-25 01:53N 47°36' W 006°30'52110.2
2017-Jun-22 22:55N 39°15' W 009°51'410.6
2017-Jun-22 22:30N 39°11' W 009°51'510.3
2017-Jun-22 22:00N 39°06' W 009°52'510.0
2017-Jun-22 21:30N 39°01' W 009°52'510.0
2017-Jun-22 21:00N 38°56' W 009°52'510.2
2017-Jun-22 20:31N 38°51' W 009°52'510.1
2017-Jun-22 20:00N 38°45' W 009°52'510.0
2017-Jun-22 19:30N 38°41' W 009°51'5 9.4
2017-Jun-22 19:00N 38°36' W 009°49'5 9.4
2017-Jun-22 18:30N 38°31' W 009°48'5 9.5
2017-Jun-22 18:00N 38°27' W 009°47'5 9.7
2017-Jun-22 17:31N 38°22' W 009°46'5 9.7
2017-Jun-22 17:01N 38°17' W 009°44'5 9.1
2017-Jun-22 16:30N 38°13' W 009°43'5 8.9
2017-Jun-22 15:54N 38°08' W 009°41'5 9.0
2017-Jun-22 15:22N 38°03' W 009°40'13 9.3
2017-Jun-22 13:57N 37°50' W 009°36'4 9.3
2017-Jun-22 13:30N 37°46' W 009°35'5 9.5
2017-Jun-22 13:00N 37°41' W 009°34'5 9.9
2017-Jun-22 12:27N 37°36' W 009°32'5 9.9
2017-Jun-22 11:57N 37°31' W 009°31'5 9.7
2017-Jun-22 11:27N 37°27' W 009°29'39 9.7
2017-Jun-22 07:23N 36°49' W 009°14'13 9.8
2017-Jun-22 06:04N 36°42' W 009°00'110.0
2017-Jun-22 05:57N 36°42' W 008°59'2210.0
2017-Jun-22 03:46N 36°36' W 008°33'32 9.9
2017-Jun-22 00:33N 36°27' W 007°55'4 9.9
2017-Jun-22 00:11N 36°26' W 007°51'119 9.5
2017-Jun-21 11:38N 35°60' W 005°27'1 8.7
2017-Jun-21 11:30N 35°60' W 005°26'4 8.6
2017-Jun-21 11:00N 36°00' W 005°20'5 8.8
2017-Jun-21 10:26N 36°01' W 005°14'  
2017-Jun-18 08:24N 35°58' W 005°14'512.7
2017-Jun-18 08:00N 35°58' W 005°21'612.1
2017-Jun-18 07:30N 35°57' W 005°28'810.8
2017-Jun-18 06:45N 35°55' W 005°38'3 9.7
2017-Jun-18 06:28N 35°55' W 005°41'5 9.1
2017-Jun-18 05:54N 35°54' W 005°48'5 9.3
2017-Jun-18 05:23N 35°53' W 005°53'  

Dump ship's entire track history